createdAt,value
2023-05-14T00:01:36.258Z,56.12
2023-05-14T00:04:08.709Z,56.59
2023-05-14T00:06:41.159Z,56.15
2023-05-14T00:09:14.016Z,56.32
2023-05-14T00:11:46.652Z,55.94
2023-05-14T00:14:19.146Z,56.17
2023-05-14T00:16:51.676Z,56.62
2023-05-14T00:19:24.109Z,56.37
2023-05-14T00:21:56.656Z,56.00
2023-05-14T00:24:29.165Z,56.63
2023-05-14T00:27:01.714Z,56.08
2023-05-14T00:29:34.324Z,56.25
2023-05-14T00:32:07.130Z,56.47
2023-05-14T00:34:39.663Z,56.29
2023-05-14T00:37:12.104Z,56.25
2023-05-14T00:39:44.670Z,56.51
2023-05-14T00:42:17.230Z,55.89
2023-05-14T00:44:49.819Z,56.31
2023-05-14T00:47:22.480Z,56.43
2023-05-14T00:49:55.365Z,55.97
2023-05-14T00:52:27.979Z,56.28
2023-05-14T00:55:04.149Z,56.17
2023-05-14T00:57:37.886Z,56.44
2023-05-14T01:00:10.898Z,55.94
2023-05-14T01:02:43.739Z,56.26
2023-05-14T01:05:17.457Z,56.29
2023-05-14T01:08:00.905Z,55.98
2023-05-14T01:10:42.442Z,56.08
2023-05-14T01:13:35.095Z,56.20
2023-05-14T01:16:12.979Z,56.19
2023-05-14T01:18:49.216Z,56.02
2023-05-14T01:21:38.517Z,56.14
2023-05-14T01:24:11.196Z,56.36
2023-05-14T01:26:43.793Z,56.39
2023-05-14T01:29:22.429Z,56.31
2023-05-14T01:31:58.933Z,56.22
2023-05-14T01:34:32.794Z,55.99
2023-05-14T01:37:29.986Z,56.42
2023-05-14T01:40:04.185Z,56.13
2023-05-14T01:42:38.433Z,56.20
2023-05-14T01:45:11.644Z,56.15
2023-05-14T01:47:44.086Z,55.95
2023-05-14T01:50:17.340Z,56.17
2023-05-14T01:52:51.433Z,56.28
2023-05-14T01:55:30.366Z,56.39
2023-05-14T01:58:02.865Z,56.31
2023-05-14T02:00:35.558Z,56.29
2023-05-14T02:03:08.210Z,56.42
2023-05-14T02:05:40.901Z,55.94
2023-05-14T02:08:13.624Z,56.01
2023-05-14T02:10:46.062Z,55.95
2023-05-14T02:13:18.861Z,56.02
2023-05-14T02:15:51.696Z,56.21
2023-05-14T02:18:24.420Z,56.28
2023-05-14T02:20:57.832Z,56.09
2023-05-14T02:23:38.222Z,56.33
2023-05-14T02:26:13.658Z,56.33
2023-05-14T02:28:46.119Z,56.21
2023-05-14T02:31:19.499Z,56.25
2023-05-14T02:33:52.139Z,56.24
2023-05-14T02:36:26.316Z,56.22
2023-05-14T02:38:59.934Z,56.06
2023-05-14T02:41:32.628Z,56.21
2023-05-14T02:44:05.555Z,55.99
2023-05-14T02:46:38.111Z,56.06
2023-05-14T02:49:13.692Z,56.46
2023-05-14T02:51:46.188Z,56.28
2023-05-14T02:54:18.829Z,56.34
2023-05-14T02:56:51.370Z,56.21
2023-05-14T02:59:24.928Z,56.24
2023-05-14T03:01:58.119Z,56.31
2023-05-14T03:04:31.437Z,56.37
2023-05-14T03:07:03.946Z,55.93
2023-05-14T03:09:38.289Z,56.43
2023-05-14T03:12:11.115Z,56.29
2023-05-14T03:14:46.352Z,56.11
2023-05-14T03:17:19.156Z,56.49
2023-05-14T03:19:51.789Z,56.33
2023-05-14T03:22:24.405Z,56.40
2023-05-14T03:24:57.075Z,56.07
2023-05-14T03:27:29.517Z,56.09
2023-05-14T03:30:02.334Z,56.56
2023-05-14T03:32:35.544Z,56.03
2023-05-14T03:35:08.403Z,56.63
2023-05-14T03:37:41.047Z,56.29
2023-05-14T03:40:13.618Z,56.29
2023-05-14T03:42:46.290Z,56.57
2023-05-14T03:45:18.797Z,56.54
2023-05-14T03:47:51.367Z,56.33
2023-05-14T03:50:25.746Z,56.35
2023-05-14T03:52:58.271Z,56.34
2023-05-14T03:55:30.847Z,56.08
2023-05-14T03:58:03.368Z,55.97
2023-05-14T04:00:36.004Z,56.34
2023-05-14T04:03:08.698Z,56.52
2023-05-14T04:05:41.186Z,56.88
2023-05-14T04:08:13.703Z,56.13
2023-05-14T04:10:46.262Z,56.67
2023-05-14T04:13:18.710Z,56.32
2023-05-14T04:15:51.277Z,55.95
2023-05-14T04:18:23.954Z,56.42
2023-05-14T04:20:56.579Z,56.44
2023-05-14T04:23:29.464Z,56.23
2023-05-14T04:26:02.098Z,56.36
2023-05-14T04:28:34.557Z,57.05
2023-05-14T04:31:07.089Z,56.09
2023-05-14T04:33:40.072Z,56.31
2023-05-14T04:36:16.086Z,56.39
2023-05-14T04:38:48.541Z,56.27
2023-05-14T04:41:21.174Z,56.32
2023-05-14T04:43:56.736Z,56.39
2023-05-14T04:46:29.324Z,56.41
2023-05-14T04:49:01.872Z,56.79
2023-05-14T04:51:34.346Z,56.27
2023-05-14T04:54:10.308Z,56.54
2023-05-14T04:56:42.730Z,56.35
2023-05-14T04:59:16.490Z,56.75
2023-05-14T05:01:49.232Z,56.45
2023-05-14T05:04:23.846Z,56.08
2023-05-14T05:06:58.658Z,56.32
2023-05-14T05:09:31.187Z,56.39
2023-05-14T05:12:03.974Z,56.37
2023-05-14T05:14:36.524Z,56.05
2023-05-14T05:17:09.211Z,56.41
2023-05-14T05:19:44.156Z,56.37
2023-05-14T05:22:17.255Z,56.83
2023-05-14T05:24:50.034Z,56.26
2023-05-14T05:27:22.784Z,57.13
2023-05-14T05:29:55.246Z,56.88
2023-05-14T05:32:27.944Z,57.00
2023-05-14T05:35:01.217Z,56.69
2023-05-14T05:37:33.966Z,56.19
2023-05-14T05:40:07.218Z,56.45
2023-05-14T05:42:45.668Z,56.78
2023-05-14T05:45:18.209Z,56.85
2023-05-14T05:47:50.937Z,56.31
2023-05-14T05:50:24.513Z,56.66
2023-05-14T05:52:59.133Z,57.05
2023-05-14T05:55:33.388Z,56.52
2023-05-14T05:58:05.793Z,56.31
2023-05-14T06:00:38.438Z,56.73
2023-05-14T06:03:11.653Z,56.56
2023-05-14T06:05:44.450Z,56.89
2023-05-14T06:08:16.933Z,56.38
2023-05-14T06:10:49.412Z,56.49
2023-05-14T06:13:21.863Z,56.52
2023-05-14T06:15:54.330Z,56.54
2023-05-14T06:18:27.099Z,56.43
2023-05-14T06:21:00.428Z,56.94
2023-05-14T06:23:34.686Z,56.45
2023-05-14T06:26:07.149Z,56.60
2023-05-14T06:28:39.767Z,56.68
2023-05-14T06:31:12.482Z,56.86
2023-05-14T06:33:45.328Z,56.65
2023-05-14T06:36:21.823Z,56.38
2023-05-14T06:38:54.338Z,56.67
2023-05-14T06:41:26.896Z,56.35
2023-05-14T06:43:59.624Z,56.29
2023-05-14T06:46:32.268Z,56.84
2023-05-14T06:49:04.942Z,56.82
2023-05-14T06:51:39.162Z,57.08
2023-05-14T06:54:11.948Z,56.13
2023-05-14T06:56:44.538Z,56.63
2023-05-14T06:59:17.266Z,56.71
2023-05-14T07:01:50.016Z,56.66
2023-05-14T07:04:22.735Z,56.56
2023-05-14T07:06:55.397Z,56.74
2023-05-14T07:09:28.381Z,56.89
2023-05-14T07:12:00.836Z,56.52
2023-05-14T07:14:33.429Z,56.72
2023-05-14T07:17:05.967Z,56.44
2023-05-14T07:19:38.495Z,56.17
2023-05-14T07:22:11.127Z,56.83
2023-05-14T07:24:46.815Z,57.07
2023-05-14T07:27:19.325Z,56.70
2023-05-14T07:29:51.873Z,56.73
2023-05-14T07:32:25.185Z,56.46
2023-05-14T07:34:57.726Z,56.87
2023-05-14T07:37:30.457Z,56.48
2023-05-14T07:40:03.138Z,56.82
2023-05-14T07:42:37.613Z,56.72
2023-05-14T07:45:10.631Z,56.67
2023-05-14T07:47:45.434Z,57.01
2023-05-14T07:50:18.758Z,56.59
2023-05-14T07:52:51.380Z,56.91
2023-05-14T07:55:23.815Z,56.38
2023-05-14T07:57:56.355Z,56.57
2023-05-14T08:00:29.055Z,56.55
2023-05-14T08:03:01.691Z,57.12
2023-05-14T08:05:34.227Z,56.52
2023-05-14T08:08:12.570Z,56.71
2023-05-14T08:10:45.277Z,56.24
2023-05-14T08:13:17.949Z,56.63
2023-05-14T08:15:50.553Z,56.87
2023-05-14T08:18:23.062Z,56.83
2023-05-14T08:20:56.188Z,56.67
2023-05-14T08:23:28.616Z,56.61
2023-05-14T08:26:01.648Z,56.62
2023-05-14T08:28:34.254Z,56.23
2023-05-14T08:31:06.956Z,56.75
2023-05-14T08:33:39.532Z,56.20
2023-05-14T08:36:11.959Z,56.63
2023-05-14T08:38:45.446Z,56.52
2023-05-14T08:41:19.279Z,56.46
2023-05-14T08:44:14.563Z,56.50
2023-05-14T08:46:49.263Z,56.31
2023-05-14T08:49:38.022Z,56.27
2023-05-14T08:52:11.703Z,56.36
2023-05-14T08:54:45.613Z,56.40
2023-05-14T08:57:20.155Z,56.35
2023-05-14T08:59:55.931Z,56.57
2023-05-14T09:02:30.496Z,56.54
2023-05-14T09:05:04.084Z,56.38
2023-05-14T09:07:36.719Z,56.57
2023-05-14T09:10:10.096Z,56.26
2023-05-14T09:12:42.809Z,56.18
2023-05-14T09:15:15.444Z,56.43
2023-05-14T09:17:48.717Z,56.81
2023-05-14T09:20:21.693Z,56.48
2023-05-14T09:22:54.830Z,56.54
2023-05-14T09:25:28.258Z,56.46
2023-05-14T09:28:06.046Z,56.17
2023-05-14T09:30:41.639Z,56.30
2023-05-14T09:33:26.208Z,56.22
2023-05-14T09:36:00.635Z,56.18
2023-05-14T09:38:34.076Z,56.48
2023-05-14T09:41:06.608Z,56.27
2023-05-14T09:43:39.122Z,56.54
2023-05-14T09:46:11.860Z,56.64
2023-05-14T09:48:46.105Z,56.41
2023-05-14T09:51:23.970Z,56.58
2023-05-14T09:53:57.251Z,56.45
2023-05-14T09:56:30.716Z,56.72
2023-05-14T09:59:04.468Z,56.30
2023-05-14T10:01:37.905Z,56.68
2023-05-14T10:04:12.020Z,56.52
2023-05-14T10:06:50.509Z,56.44
2023-05-14T10:09:28.593Z,56.21
2023-05-14T10:12:01.602Z,56.58
2023-05-14T10:14:43.229Z,56.70
2023-05-14T10:17:18.593Z,56.50
2023-05-14T10:19:54.484Z,56.24
2023-05-14T10:22:33.926Z,56.04
2023-05-14T10:25:07.036Z,56.86
2023-05-14T10:27:41.102Z,56.53
2023-05-14T10:30:13.608Z,56.37
2023-05-14T10:32:46.275Z,56.18
2023-05-14T10:35:25.450Z,56.55
2023-05-14T10:37:59.083Z,56.73
2023-05-14T10:40:31.951Z,56.52
2023-05-14T10:43:05.263Z,56.77
2023-05-14T10:45:37.812Z,56.79
2023-05-14T10:48:10.862Z,56.37
2023-05-14T10:50:43.599Z,56.28
2023-05-14T10:53:16.068Z,56.52
2023-05-14T10:55:48.554Z,56.46
2023-05-14T10:58:21.488Z,56.51
2023-05-14T11:00:55.707Z,56.30
2023-05-14T11:03:34.059Z,56.29
2023-05-14T11:06:07.951Z,56.77
2023-05-14T11:08:40.963Z,56.63
2023-05-14T11:11:13.592Z,56.38
2023-05-14T11:13:46.352Z,56.16
2023-05-14T11:16:24.088Z,56.74
2023-05-14T11:19:06.098Z,56.10
2023-05-14T11:21:39.142Z,56.65
2023-05-14T11:24:11.579Z,56.63
2023-05-14T11:26:45.421Z,56.32
2023-05-14T11:29:17.974Z,56.55
2023-05-14T11:31:50.833Z,56.09
2023-05-14T11:34:23.361Z,56.55
2023-05-14T11:36:56.119Z,56.17
2023-05-14T11:39:28.519Z,56.35
2023-05-14T11:42:20.439Z,56.05
2023-05-14T11:44:56.679Z,56.40
2023-05-14T11:47:29.620Z,56.17
2023-05-14T11:50:02.283Z,56.20
2023-05-14T11:52:39.959Z,55.73
2023-05-14T11:55:13.215Z,56.29
2023-05-14T11:57:45.873Z,56.34
2023-05-14T12:00:22.220Z,56.01
2023-05-14T12:02:55.077Z,55.93
2023-05-14T12:05:27.637Z,55.92
2023-05-14T12:08:00.321Z,55.97
2023-05-14T12:10:42.176Z,56.50
2023-05-14T12:13:18.335Z,56.14
2023-05-14T12:16:02.548Z,55.68
2023-05-14T12:18:35.225Z,56.05
2023-05-14T12:21:08.712Z,56.15
2023-05-14T12:23:41.284Z,56.11
2023-05-14T12:26:13.981Z,56.35
2023-05-14T12:28:47.680Z,55.60
2023-05-14T12:31:28.518Z,55.90
2023-05-14T12:34:01.168Z,55.90
2023-05-14T12:36:33.680Z,56.22
2023-05-14T12:39:07.513Z,56.19
2023-05-14T12:41:53.938Z,56.18
2023-05-14T12:44:27.983Z,55.95
2023-05-14T12:47:00.831Z,55.54
2023-05-14T12:49:33.473Z,56.18
2023-05-14T12:52:26.078Z,56.18
2023-05-14T12:55:11.869Z,56.18
2023-05-14T12:57:44.572Z,55.26
2023-05-14T13:00:19.941Z,55.64
2023-05-14T13:02:52.521Z,55.88
2023-05-14T13:05:25.356Z,55.57
2023-05-14T13:07:59.392Z,55.84
2023-05-14T13:10:31.935Z,55.12
2023-05-14T13:13:04.552Z,55.11
2023-05-14T13:15:37.143Z,55.75
2023-05-14T13:18:17.660Z,55.80
2023-05-14T13:20:50.260Z,54.98
2023-05-14T13:23:22.854Z,55.26
2023-05-14T13:25:55.673Z,54.98
2023-05-14T13:28:28.189Z,55.41
2023-05-14T13:31:20.363Z,55.35
2023-05-14T13:33:57.923Z,55.76
2023-05-14T13:36:32.270Z,55.15
2023-05-14T13:39:27.380Z,54.78
2023-05-14T13:42:00.120Z,55.42
2023-05-14T13:44:32.653Z,54.90
2023-05-14T13:47:20.918Z,55.11
2023-05-14T13:49:59.343Z,55.34
2023-05-14T13:52:31.864Z,55.42
2023-05-14T13:58:27.871Z,55.05
2023-05-14T14:01:00.501Z,54.50
2023-05-14T14:03:33.154Z,54.61
2023-05-14T14:06:06.751Z,55.21
2023-05-14T14:08:39.420Z,54.52
2023-05-14T14:11:13.652Z,54.47
2023-05-14T14:13:47.871Z,54.99
2023-05-14T14:16:21.663Z,55.31
2023-05-14T14:18:54.389Z,55.09
2023-05-14T14:21:27.115Z,55.13
2023-05-14T14:23:59.600Z,55.22
2023-05-14T14:26:48.612Z,54.88
2023-05-14T14:29:28.384Z,54.55
2023-05-14T14:32:10.035Z,54.96
2023-05-14T14:34:42.548Z,54.26
2023-05-14T14:37:58.510Z,54.42
2023-05-14T14:40:48.687Z,54.66
2023-05-14T14:43:27.354Z,54.39
2023-05-14T14:46:00.539Z,54.75
2023-05-14T14:52:36.765Z,55.03
2023-05-14T14:55:15.313Z,54.01
2023-05-14T14:57:47.869Z,54.63
2023-05-14T15:00:33.822Z,54.24
2023-05-14T15:06:14.320Z,54.21
2023-05-14T15:11:44.772Z,54.81
2023-05-14T15:14:29.425Z,54.12
2023-05-14T15:17:01.969Z,54.61
2023-05-14T15:19:35.792Z,53.98
2023-05-14T15:24:57.921Z,54.62
2023-05-14T15:27:35.945Z,53.98
2023-05-14T15:30:09.063Z,54.34
2023-05-14T15:32:42.093Z,54.00
2023-05-14T15:35:32.843Z,54.48
2023-05-14T15:38:11.214Z,54.30
2023-05-14T15:40:43.802Z,54.36
2023-05-14T15:46:14.508Z,54.36
2023-05-14T15:51:55.253Z,54.57
2023-05-14T15:54:40.094Z,54.48
2023-05-14T15:57:13.425Z,54.46
2023-05-14T15:59:52.021Z,54.18
2023-05-14T16:02:39.957Z,54.34
2023-05-14T16:05:15.520Z,54.54
2023-05-14T16:07:54.089Z,54.25
2023-05-14T16:11:24.094Z,54.10
2023-05-14T16:14:02.733Z,54.24
2023-05-14T16:16:54.247Z,54.92
2023-05-14T16:19:29.571Z,54.22
2023-05-14T16:22:02.330Z,54.04
2023-05-14T16:24:56.463Z,54.07
2023-05-14T16:30:57.209Z,54.55
2023-05-14T16:33:41.715Z,54.74
2023-05-14T16:36:19.629Z,54.24
2023-05-14T16:39:19.918Z,54.69
2023-05-14T16:45:07.371Z,54.31
2023-05-14T16:47:48.062Z,54.17
2023-05-14T16:50:26.217Z,54.93
2023-05-14T16:53:09.961Z,54.88
2023-05-14T16:55:50.922Z,54.43
2023-05-14T16:58:27.483Z,54.28
2023-05-14T17:01:27.916Z,54.68
2023-05-14T17:06:59.656Z,54.57
2023-05-14T17:09:33.266Z,54.72
2023-05-14T17:12:13.590Z,54.90
2023-05-14T17:14:46.327Z,54.01
2023-05-14T17:17:38.134Z,54.50
2023-05-14T17:20:11.501Z,54.63
2023-05-14T17:22:52.217Z,54.42
2023-05-14T17:25:26.654Z,54.21
2023-05-14T17:31:42.281Z,54.66
2023-05-14T17:34:21.199Z,54.02
2023-05-14T17:37:57.877Z,53.98
2023-05-14T17:40:31.497Z,54.29
2023-05-14T17:43:04.400Z,53.87
2023-05-14T17:45:52.495Z,53.89
2023-05-14T17:48:26.753Z,54.17
2023-05-14T17:50:59.320Z,53.83
2023-05-14T17:54:16.392Z,54.32
2023-05-14T17:57:08.320Z,54.41
2023-05-14T18:03:08.126Z,53.94
2023-05-14T18:05:40.988Z,54.57
2023-05-14T18:08:25.063Z,54.67
2023-05-14T18:11:54.728Z,53.98
2023-05-14T18:14:31.521Z,54.34
2023-05-14T18:17:17.516Z,54.41
2023-05-14T18:20:00.328Z,54.34
2023-05-14T18:22:52.375Z,54.48
2023-05-14T18:25:36.141Z,54.85
2023-05-14T18:28:09.633Z,54.23
2023-05-14T18:44:34.967Z,54.92
2023-05-14T18:47:07.999Z,55.12
2023-05-14T18:49:42.240Z,55.28
2023-05-14T18:52:27.350Z,55.33
2023-05-14T18:55:14.289Z,55.21
2023-05-14T18:57:47.007Z,55.32
2023-05-14T19:00:19.884Z,55.43
2023-05-14T19:03:04.558Z,55.49
2023-05-14T19:05:43.342Z,55.03
2023-05-14T19:08:18.633Z,55.48
2023-05-14T19:11:03.584Z,55.61
2023-05-14T19:13:36.131Z,55.67
2023-05-14T19:16:21.104Z,55.71
2023-05-14T19:18:54.108Z,55.18
2023-05-14T19:21:42.085Z,55.62
2023-05-14T19:27:06.995Z,55.75
2023-05-14T19:29:41.836Z,56.17
2023-05-14T19:32:26.410Z,56.12
2023-05-14T19:39:12.322Z,55.70
2023-05-14T19:41:45.142Z,55.79
2023-05-14T19:44:56.322Z,55.92
2023-05-14T19:47:32.046Z,56.06
2023-05-14T19:50:06.050Z,56.29
2023-05-14T19:52:47.302Z,56.23
2023-05-14T19:55:28.329Z,56.03
2023-05-14T19:58:00.947Z,55.54
2023-05-14T20:03:41.606Z,56.13
2023-05-14T20:07:17.587Z,56.39
2023-05-14T20:14:57.405Z,56.13
2023-05-14T20:17:32.615Z,55.67
2023-05-14T20:23:20.691Z,55.86
2023-05-14T20:26:27.358Z,55.91
2023-05-14T20:28:58.294Z,55.61
2023-05-14T20:35:02.805Z,56.00
2023-05-14T20:40:29.733Z,56.34
2023-05-14T20:43:05.621Z,56.07
2023-05-14T20:51:33.115Z,55.78
2023-05-14T20:54:06.056Z,55.43
2023-05-14T20:56:38.572Z,55.96
2023-05-14T20:59:17.344Z,56.25
2023-05-14T21:01:49.904Z,56.19
2023-05-14T21:04:32.114Z,56.13
2023-05-14T21:07:18.619Z,55.83
2023-05-14T21:10:08.146Z,56.28
2023-05-14T21:12:49.916Z,55.72
2023-05-14T21:15:42.398Z,56.24
2023-05-14T21:18:27.011Z,56.23
2023-05-14T21:20:59.759Z,56.23
2023-05-14T21:23:35.138Z,55.90
2023-05-14T21:26:07.833Z,56.30
2023-05-14T21:28:40.609Z,55.87
2023-05-14T21:31:13.237Z,55.65
2023-05-14T21:33:46.022Z,55.91
2023-05-14T21:36:23.913Z,56.39
2023-05-14T21:38:56.545Z,55.63
2023-05-14T21:41:40.149Z,55.76
2023-05-14T21:44:14.410Z,56.13
2023-05-14T21:46:47.530Z,55.92
2023-05-14T21:49:20.207Z,56.09
2023-05-14T21:52:21.910Z,56.29
2023-05-14T21:55:08.698Z,55.84
2023-05-14T21:57:41.373Z,56.33
2023-05-14T22:00:24.461Z,56.22
2023-05-14T22:03:27.231Z,56.13
2023-05-14T22:14:34.752Z,56.39
2023-05-14T22:17:07.396Z,55.96
2023-05-14T22:19:39.908Z,55.72
2023-05-14T22:22:12.764Z,55.91
2023-05-14T22:24:45.564Z,56.16
2023-05-14T22:27:18.926Z,56.51
2023-05-14T22:29:52.548Z,56.19
2023-05-14T22:32:25.435Z,55.89
2023-05-14T22:34:58.014Z,56.39
2023-05-14T22:40:18.863Z,56.33
2023-05-14T22:42:53.458Z,56.12
2023-05-14T22:45:26.234Z,55.97
2023-05-14T22:47:59.502Z,55.86
2023-05-14T22:50:44.429Z,56.41
2023-05-14T22:53:16.990Z,55.93
2023-05-14T22:55:49.639Z,55.98
2023-05-14T22:58:37.607Z,56.35
2023-05-14T23:01:12.238Z,56.25
2023-05-14T23:03:44.998Z,56.07
2023-05-14T23:06:19.746Z,55.99
2023-05-14T23:08:59.281Z,56.12
2023-05-14T23:11:31.906Z,56.31
2023-05-14T23:16:53.417Z,56.34
2023-05-14T23:19:26.656Z,56.08
2023-05-14T23:21:59.582Z,55.98
2023-05-14T23:24:32.150Z,56.00
2023-05-14T23:27:05.567Z,56.03
2023-05-14T23:29:38.689Z,56.06
2023-05-14T23:32:14.482Z,56.23
2023-05-14T23:34:47.340Z,56.07
2023-05-14T23:37:22.027Z,56.29
2023-05-14T23:39:54.707Z,55.92
2023-05-14T23:42:27.324Z,56.23
2023-05-14T23:45:00.105Z,56.61
2023-05-14T23:47:33.017Z,56.33
2023-05-14T23:50:06.069Z,56.29
2023-05-14T23:55:34.896Z,56.03
2023-05-14T23:58:16.837Z,56.05
